This is the latest recevied weather packets stored in our database for station/object K5OBH. If no packets are shown the sender has not sent any weather packets the latest 10 day(s).
| Time | Temp. | Humidity | Pressure | Rain* | Wind** | Luminosity | Snow |
|---|---|---|---|---|---|---|---|
| 1778098038 | 16.67° C | 56% | 1015.9 hPa | 0 mm | - | 717 W/m² | - |
| 1778097734 | 16.67° C | 57% | 1015.8 hPa | 0 mm | - | 874 W/m² | - |
| 1778097431 | 16.67° C | 55% | 1015.8 hPa | 0 mm | - | 325 W/m² | - |
| 1778097127 | 16.67° C | 56% | 1015.7 hPa | 0 mm | - | 246 W/m² | - |
| 1778096824 | 17.22° C | 56% | 1015.7 hPa | 0 mm | - | 767 W/m² | - |
| 1778096521 | 16.67° C | 55% | 1015.8 hPa | 0 mm | - | 522 W/m² | - |
| 1778096218 | 17.22° C | 56% | 1015.8 hPa | 0 mm | - | 368 W/m² | - |
| 1778095915 | 17.22° C | 56% | 1015.8 hPa | 0 mm | - | 723 W/m² | - |
| 1778095612 | 16.67° C | 56% | 1015.8 hPa | 0 mm | - | 845 W/m² | - |
| 1778095308 | 17.78° C | 56% | 1016.2 hPa | 0 mm | - | 523 W/m² | - |
| 1778095005 | 17.22° C | 56% | 1016 hPa | 0 mm | - | 784 W/m² | - |
| 1778094701 | 16.67° C | 55% | 1016.1 hPa | 0 mm | - | 391 W/m² | - |
| 1778094399 | 17.22° C | 55% | 1016 hPa | 0 mm | - | 974 W/m² | - |
| 1778094095 | 16.67° C | 55% | 1016.1 hPa | 0 mm | - | 810 W/m² | - |
| 1778093793 | 16.11° C | 57% | 1015.9 hPa | 0 mm | - | 905 W/m² | - |
| 1778093489 | 16.67° C | 56% | 1016 hPa | 0 mm | - | 385 W/m² | - |
| 1778093186 | 17.22° C | 55% | 1016.2 hPa | 0 mm | - | 360 W/m² | - |
| 1778092883 | 16.67° C | 55% | 1016.2 hPa | 0 mm | - | 878 W/m² | - |
| 1778092580 | 16.11° C | 57% | 1015.9 hPa | 0 mm | - | 854 W/m² | - |
| 1778092276 | 16.67° C | 55% | 1016.4 hPa | 0 mm | - | 328 W/m² | - |
| 1778091974 | 16.11° C | 57% | 1016.2 hPa | 0 mm | - | 876 W/m² | - |
| 1778091671 | 15.56° C | 57% | 1016.2 hPa | 0 mm | - | 794 W/m² | - |
| 1778091369 | 16.67° C | 56% | 1016.3 hPa | 0 mm | - | 877 W/m² | - |
| 1778091065 | 15.56° C | 58% | 1016.7 hPa | 0 mm | - | 864 W/m² | - |
| 1778090762 | 16.11° C | 57% | 1016.6 hPa | 0 mm | - | 855 W/m² | - |
* Rain latest hour (hover to see other rain measurements)
** Current wind speed in m/s (hover to see current wind gust speed)